Time;durP1;ratioP1;P1;durP2;ratioP2;P2;SDS_P1;SDS_P2;PMS_P1;PMS_P2;Temp;Humidity;BMP_temperature;BMP_pressure;BME280_temperature;BME280_humidity;BME280_pressure;Samples;Min_cycle;Max_cycle;Signal;HPM_P1;HPM_P2
2021/09/13 00:00:01;;;;;;;;;;;;;;;18.32;60.20;99672.63;4411249;32;28677;-87
2021/09/13 00:02:30;;;;;;;;;;;;;;;18.15;60.18;99674.66;4411987;32;20035;-87
2021/09/13 00:04:55;;;;;;;;;;;;;;;18.02;60.18;99674.59;4412223;32;19998;-88
2021/09/13 00:07:20;;;;;;;;;;;;;;;17.92;60.17;99670.84;4411776;32;19985;-88
2021/09/13 00:09:45;;;;;;;;;;;;;;;17.98;60.17;99675.72;4411448;32;20915;-88
2021/09/13 00:12:11;;;;;;;;;;;;;;;17.94;60.18;99675.06;4411481;32;20322;-87
2021/09/13 00:14:36;;;;;;;;;;;;;;;17.81;60.17;99678.59;4411963;32;20303;-88
2021/09/13 00:17:01;;;;;;;;;;;;;;;17.91;60.17;99674.44;4411843;32;19992;-88
2021/09/13 00:19:26;;;;;;;;;;;;;;;17.69;60.15;99683.66;4412419;32;20004;-88
2021/09/13 00:21:52;;;;;;;;;;;;;;;17.75;60.16;99682.47;4412003;32;20024;-88
2021/09/13 00:24:17;;;;;;;;;;;;;;;17.86;60.17;99676.50;4411233;32;28250;-88
2021/09/13 00:26:42;;;;;;;;;;;;;;;17.91;60.17;99675.28;4411854;32;20027;-88
2021/09/13 00:29:07;;;;;;;;;;;;;;;17.87;60.17;99673.78;4411713;32;20338;-88
2021/09/13 00:31:33;;;;;;;;;;;;;;;18.12;60.18;99680.13;4425315;32;19974;-88
2021/09/13 00:33:58;;;;;;;;;;;;;;;18.14;60.18;99675.59;4411156;32;25201;-88
2021/09/13 00:36:23;;;;;;;;;;;;;;;18.06;60.18;99671.66;4411461;32;19970;-87
2021/09/13 00:38:48;;;;;;;;;;;;;;;18.02;60.18;99670.19;4425565;32;19974;-86
2021/09/13 00:41:13;;;;;;;;;;;;;;;17.79;60.16;99673.44;4411639;32;20331;-87
2021/09/13 00:43:39;;;;;;;;;;;;;;;17.77;60.16;99670.03;4398208;32;33072;-86
2021/09/13 00:46:04;;;;;;;;;;;;;;;17.85;60.17;99661.66;4411603;32;19998;-87
2021/09/13 00:48:30;;;;;;;;;;;;;;;17.93;60.18;99667.28;4411359;32;19984;-86
2021/09/13 00:50:55;;;;;;;;;;;;;;;17.91;60.17;99667.38;4424936;32;19993;-86
2021/09/13 00:53:20;;;;;;;;;;;;;;;18.10;60.18;99667.06;4424371;32;19977;-86
2021/09/13 00:55:45;;;;;;;;;;;;;;;17.85;60.17;99662.50;4410721;32;20338;-86
2021/09/13 00:58:11;;;;;;;;;;;;;;;17.93;60.18;99672.53;4410839;32;20020;-85
2021/09/13 01:00:36;;;;;;;;;;;;;;;17.99;60.17;99659.84;4410727;32;20033;-85
2021/09/13 01:03:01;;;;;;;;;;;;;;;17.98;60.17;99662.56;4424776;32;19997;-85
2021/09/13 01:05:26;;;;;;;;;;;;;;;18.18;60.19;99664.75;4410324;32;20339;-86
2021/09/13 01:07:52;;;;;;;;;;;;;;;18.24;60.19;99663.53;4424457;32;20311;-85
2021/09/13 01:10:17;;;;;;;;;;;;;;;18.17;60.19;99662.22;4410441;32;19986;-85
2021/09/13 01:12:42;;;;;;;;;;;;;;;18.20;60.19;99664.66;4424457;32;20001;-85
2021/09/13 01:15:08;;;;;;;;;;;;;;;18.25;60.19;99666.06;4423889;32;27853;-85
2021/09/13 01:17:33;;;;;;;;;;;;;;;18.27;60.19;99669.44;4410642;32;20016;-86
2021/09/13 01:19:59;;;;;;;;;;;;;;;18.33;60.20;99665.56;4424582;32;19990;-85
2021/09/13 01:22:24;;;;;;;;;;;;;;;18.29;60.18;99667.56;4410670;32;20259;-86
2021/09/13 01:24:50;;;;;;;;;;;;;;;18.40;60.20;99661.56;4410716;32;20297;-87
2021/09/13 01:27:15;;;;;;;;;;;;;;;18.22;60.20;99663.63;4410164;32;19966;-89
2021/09/13 01:29:40;;;;;;;;;;;;;;;18.18;60.19;99667.38;4424538;32;19982;-89
2021/09/13 01:32:06;;;;;;;;;;;;;;;18.35;60.19;99666.31;4410451;32;19985;-88
2021/09/13 01:34:31;;;;;;;;;;;;;;;18.48;60.21;99659.28;4410424;32;19978;-89
2021/09/13 01:36:56;;;;;;;;;;;;;;;18.49;60.21;99662.78;4409718;32;31636;-90
2021/09/13 01:39:21;;;;;;;;;;;;;;;18.17;60.18;99659.59;4410027;32;24763;-89
2021/09/13 01:41:47;;;;;;;;;;;;;;;18.18;60.19;99658.66;4424390;32;19986;-89
2021/09/13 01:44:12;;;;;;;;;;;;;;;18.13;60.18;99660.72;4410371;32;19993;-89
2021/09/13 01:46:38;;;;;;;;;;;;;;;18.13;60.18;99656.31;4410387;32;20012;-88
2021/09/13 01:49:04;;;;;;;;;;;;;;;18.17;60.19;99659.59;4410280;32;20307;-89
2021/09/13 01:51:29;;;;;;;;;;;;;;;18.17;60.19;99657.78;4397564;32;20049;-90
2021/09/13 01:53:54;;;;;;;;;;;;;;;17.86;60.17;99666.81;4424143;32;29283;-89
2021/09/13 01:56:20;;;;;;;;;;;;;;;17.77;60.17;99670.03;4411142;32;19978;-89
2021/09/13 01:58:45;;;;;;;;;;;;;;;17.85;60.17;99665.13;4410595;32;22133;-89
2021/09/13 02:01:10;;;;;;;;;;;;;;;17.84;60.17;99666.06;4410377;32;28063;-90
2021/09/13 02:03:35;;;;;;;;;;;;;;;17.90;60.16;99665.69;4410431;32;19974;-89
2021/09/13 02:06:00;;;;;;;;;;;;;;;18.14;60.18;99662.44;4410658;32;19982;-88
2021/09/13 02:08:26;;;;;;;;;;;;;;;18.04;60.17;99670.09;4410942;32;19993;-87
2021/09/13 02:10:51;;;;;;;;;;;;;;;18.18;60.19;99662.12;4410465;32;22139;-89
2021/09/13 02:13:16;;;;;;;;;;;;;;;18.09;60.18;99665.34;4423928;32;29653;-89
2021/09/13 02:15:41;;;;;;;;;;;;;;;18.11;60.18;99663.47;4424395;32;24140;-89
2021/09/13 02:18:06;;;;;;;;;;;;;;;18.14;60.18;99667.69;4424465;32;22716;-89
2021/09/13 02:20:32;;;;;;;;;;;;;;;18.01;60.18;99668.50;4410622;32;20032;-89
2021/09/13 02:22:57;;;;;;;;;;;;;;;17.90;60.17;99672.75;4410866;32;19988;-90
2021/09/13 02:25:22;;;;;;;;;;;;;;;17.97;60.17;99663.50;4410497;32;19978;-89
2021/09/13 02:27:47;;;;;;;;;;;;;;;18.00;60.18;99674.72;4424398;32;21259;-89
2021/09/13 02:30:13;;;;;;;;;;;;;;;17.94;60.18;99672.44;4410780;32;19990;-89
2021/09/13 02:32:38;;;;;;;;;;;;;;;17.95;60.17;99671.50;4424500;32;20016;-90
2021/09/13 02:35:07;;;;;;;;;;;;;;;17.95;60.17;99674.13;4410308;32;21965;-89
2021/09/13 02:37:32;;;;;;;;;;;;;;;17.95;60.17;99674.13;4424626;32;19982;-90
2021/09/13 02:39:59;;;;;;;;;;;;;;;17.75;60.16;99677.19;4410071;32;25055;-88
2021/09/13 02:42:24;;;;;;;;;;;;;;;17.86;60.17;99669.47;4397971;32;20002;-89
2021/09/13 02:44:49;;;;;;;;;;;;;;;17.67;60.15;99680.28;4410808;32;19987;-89
2021/09/13 02:47:15;;;;;;;;;;;;;;;17.50;60.14;99673.41;4410035;32;25579;-88
2021/09/13 02:49:40;;;;;;;;;;;;;;;17.50;60.15;99673.41;4410792;32;19996;-89
2021/09/13 02:52:05;;;;;;;;;;;;;;;17.49;60.15;99668.22;4410066;32;19973;-88
2021/09/13 02:54:30;;;;;;;;;;;;;;;17.52;60.14;99678.59;4409410;32;20354;-89
2021/09/13 02:56:56;;;;;;;;;;;;;;;17.44;60.14;99671.16;4409411;32;21339;-87
2021/09/13 02:59:21;;;;;;;;;;;;;;;17.57;60.15;99670.41;4409558;32;20001;-86
2021/09/13 03:01:46;;;;;;;;;;;;;;;17.47;60.15;99675.38;4423025;32;22479;-86
2021/09/13 03:04:11;;;;;;;;;;;;;;;17.16;60.13;99673.78;4409958;32;20011;-87
2021/09/13 03:06:37;;;;;;;;;;;;;;;17.35;60.15;99670.88;4410958;32;32092;-87
2021/09/13 03:09:02;;;;;;;;;;;;;;;16.98;60.12;99677.50;4423241;32;20429;-87
2021/09/13 03:11:27;;;;;;;;;;;;;;;17.15;60.12;99669.44;4423137;32;20591;-88
2021/09/13 03:13:52;;;;;;;;;;;;;;;17.25;60.13;99672.34;4409019;32;19981;-87
2021/09/13 03:16:18;;;;;;;;;;;;;;;17.25;60.14;99675.84;4410598;32;31123;-87
2021/09/13 03:18:43;;;;;;;;;;;;;;;17.51;60.15;99679.53;4425244;32;20249;-87
2021/09/13 03:21:08;;;;;;;;;;;;;;;17.39;60.14;99675.84;4411698;32;20325;-87
2021/09/13 03:23:33;;;;;;;;;;;;;;;17.34;60.14;99679.72;4425702;32;19981;-87
2021/09/13 03:25:58;;;;;;;;;;;;;;;17.35;60.14;99676.16;4410842;32;33996;-86
2021/09/13 03:28:24;;;;;;;;;;;;;;;17.36;60.13;99683.09;4424941;32;19993;-88
2021/09/13 03:30:51;;;;;;;;;;;;;;;17.28;60.13;99685.34;4425143;32;19982;-88
2021/09/13 03:33:16;;;;;;;;;;;;;;;17.39;60.14;99683.75;4411596;32;20004;-88
2021/09/13 03:35:41;;;;;;;;;;;;;;;17.11;60.12;99681.94;4410163;32;26817;-89
2021/09/13 03:38:06;;;;;;;;;;;;;;;17.17;60.13;99685.97;4410730;32;27241;-90
2021/09/13 03:40:31;;;;;;;;;;;;;;;17.16;60.13;99682.50;4411539;32;20367;-90
2021/09/13 03:42:57;;;;;;;;;;;;;;;17.14;60.12;99684.38;4411138;32;25787;-90
2021/09/13 03:45:22;;;;;;;;;;;;;;;17.12;60.12;99688.91;4411658;32;20129;-89
2021/09/13 03:47:48;;;;;;;;;;;;;;;17.16;60.13;99693.03;4411616;32;19982;-90
2021/09/13 03:50:13;;;;;;;;;;;;;;;17.25;60.13;99689.00;4412976;32;19973;-90
2021/09/13 03:52:39;;;;;;;;;;;;;;;17.27;60.13;99686.25;4411782;32;19997;-87
2021/09/13 03:55:04;;;;;;;;;;;;;;;17.06;60.12;99696.31;4425412;32;24188;-87
2021/09/13 03:57:29;;;;;;;;;;;;;;;16.83;60.11;99698.50;4426076;32;19986;-89
2021/09/13 03:59:55;;;;;;;;;;;;;;;16.76;60.10;99697.16;4426057;32;19973;-88
2021/09/13 04:02:20;;;;;;;;;;;;;;;16.96;60.12;99697.78;4411842;32;21213;-92
2021/09/13 04:04:49;;;;;;;;;;;;;;;16.97;60.11;99700.31;4426026;32;19966;-92
2021/09/13 04:07:21;;;;;;;;;;;;;;;16.85;60.12;99696.63;4412561;32;19998;-91
2021/09/13 04:12:17;;;;;;;;;;;;;;;16.96;60.12;99697.78;4412551;32;19974;-90
2021/09/13 04:14:42;;;;;;;;;;;;;;;16.79;60.11;99698.75;4411782;32;20000;-90
2021/09/13 04:17:08;;;;;;;;;;;;;;;16.68;60.09;99699.41;4425927;32;19970;-89
2021/09/13 04:19:33;;;;;;;;;;;;;;;16.73;60.11;99699.13;4412146;32;20251;-92
2021/09/13 04:21:58;;;;;;;;;;;;;;;16.80;60.10;99703.13;4411783;32;19978;-90
2021/09/13 04:24:24;;;;;;;;;;;;;;;16.62;60.10;99704.13;4413814;32;19997;-90
2021/09/13 04:26:49;;;;;;;;;;;;;;;16.66;60.10;99697.75;4411644;32;19998;-90
2021/09/13 04:29:14;;;;;;;;;;;;;;;16.81;60.11;99700.38;4411726;32;19970;-90
2021/09/13 04:31:40;;;;;;;;;;;;;;;17.01;60.12;99699.19;4411752;32;19973;-90
2021/09/13 04:34:05;;;;;;;;;;;;;;;16.97;60.12;99705.56;4411178;32;20216;-89
2021/09/13 04:36:30;;;;;;;;;;;;;;;17.21;60.12;99700.62;4398927;32;19997;-91
2021/09/13 04:38:55;;;;;;;;;;;;;;;17.16;60.13;99705.34;4411486;32;19986;-91
2021/09/13 04:41:21;;;;;;;;;;;;;;;16.99;60.11;99700.22;4411990;32;19977;-92
2021/09/13 04:43:46;;;;;;;;;;;;;;;17.14;60.12;99696.69;4411912;32;20001;-91
2021/09/13 04:46:11;;;;;;;;;;;;;;;17.10;60.13;99701.28;4399106;32;20025;-91
2021/09/13 04:48:36;;;;;;;;;;;;;;;17.26;60.13;99695.94;4411538;32;20380;-91
2021/09/13 04:51:02;;;;;;;;;;;;;;;17.08;60.12;99707.59;4411824;32;20372;-91
2021/09/13 04:53:27;;;;;;;;;;;;;;;17.19;60.13;99698.09;4410664;32;20033;-91
2021/09/13 04:55:52;;;;;;;;;;;;;;;17.25;60.13;99701.28;4411249;32;20032;-91
2021/09/13 04:58:18;;;;;;;;;;;;;;;17.35;60.14;99698.03;4412950;32;22240;-91
2021/09/13 05:00:43;;;;;;;;;;;;;;;17.46;60.15;99703.47;4410722;32;20255;-92
2021/09/13 05:03:08;;;;;;;;;;;;;;;17.47;60.14;99702.53;4410114;32;32455;-93
2021/09/13 05:05:33;;;;;;;;;;;;;;;17.52;60.14;99704.06;4410862;32;19993;-93
2021/09/13 05:07:59;;;;;;;;;;;;;;;17.67;60.15;99705.72;4410520;32;20042;-92
2021/09/13 05:10:24;;;;;;;;;;;;;;;17.82;60.16;99710.09;4411039;32;19970;-91
2021/09/13 05:12:49;;;;;;;;;;;;;;;17.92;60.17;99705.94;4410884;32;20001;-91
2021/09/13 05:15:14;;;;;;;;;;;;;;;18.02;60.17;99704.44;4424677;32;20024;-91
2021/09/13 05:17:40;;;;;;;;;;;;;;;18.03;60.17;99711.37;4410816;32;24037;-92
2021/09/13 05:20:05;;;;;;;;;;;;;;;18.17;60.18;99699.94;4412226;32;19986;-91
2021/09/13 05:22:30;;;;;;;;;;;;;;;18.17;60.18;99704.37;4411057;32;20398;-91
2021/09/13 05:24:56;;;;;;;;;;;;;;;18.20;60.18;99709.44;4410929;32;20007;-92
2021/09/13 05:27:21;;;;;;;;;;;;;;;18.44;60.19;99710.50;4411101;32;19998;-91
2021/09/13 05:29:46;;;;;;;;;;;;;;;18.43;60.19;99714.06;4411185;32;19993;-92
2021/09/13 05:32:12;;;;;;;;;;;;;;;18.56;60.20;99712.34;4410334;32;19978;-91
2021/09/13 05:34:37;;;;;;;;;;;;;;;18.68;60.20;99708.91;4410881;32;20056;-92
2021/09/13 05:37:02;;;;;;;;;;;;;;;18.96;60.22;99707.97;4410903;32;19970;-92
2021/09/13 05:39:27;;;;;;;;;;;;;;;19.02;60.23;99709.31;4412792;32;20003;-93
2021/09/13 05:41:52;;;;;;;;;;;;;;;19.31;60.24;99705.53;4410832;32;19998;-92
2021/09/13 05:44:18;;;;;;;;;;;;;;;19.31;60.24;99705.53;4411017;32;20012;-91
2021/09/13 05:46:43;;;;;;;;;;;;;;;19.19;60.23;99703.75;4410677;32;19986;-92
2021/09/13 05:49:11;;;;;;;;;;;;;;;19.46;60.24;99705.44;4410868;32;20015;-93
2021/09/13 05:51:42;;;;;;;;;;;;;;;19.73;60.26;99703.56;4410619;32;20321;-92
2021/09/13 05:54:07;;;;;;;;;;;;;;;19.73;60.26;99715.91;4411099;32;19994;-93
2021/09/13 05:56:33;;;;;;;;;;;;;;;19.83;60.26;99711.66;4420077;32;19988;-92
2021/09/13 05:58:58;;;;;;;;;;;;;;;20.15;60.28;99704.09;4418212;32;20019;-93
2021/09/13 06:01:23;;;;;;;;;;;;;;;20.30;60.29;99705.59;4412893;32;19996;-93
2021/09/13 06:03:48;;;;;;;;;;;;;;;20.42;60.30;99704.75;4400833;32;20036;-91
2021/09/13 06:06:14;;;;;;;;;;;;;;;20.42;60.30;99702.13;4410457;32;20319;-90
2021/09/13 06:08:39;;;;;;;;;;;;;;;20.58;60.30;99699.16;4410826;32;20266;-92
2021/09/13 06:11:04;;;;;;;;;;;;;;;20.84;60.31;99690.16;4410506;32;20081;-93
2021/09/13 06:13:29;;;;;;;;;;;;;;;21.08;60.32;99700.69;4410471;32;19990;-92
2021/09/13 06:15:55;;;;;;;;;;;;;;;21.29;60.34;99697.34;4410728;32;20080;-92
2021/09/13 06:18:20;;;;;;;;;;;;;;;21.32;60.34;99698.00;4410245;32;20004;-91
2021/09/13 06:20:45;;;;;;;;;;;;;;;21.34;60.34;99693.41;4410615;32;19990;-92
2021/09/13 06:23:10;;;;;;;;;;;;;;;21.54;60.35;99691.88;4410616;32;19986;-92
2021/09/13 06:25:36;;;;;;;;;;;;;;;21.81;60.37;99699.44;4410536;32;20044;-93
2021/09/13 06:28:01;;;;;;;;;;;;;;;22.09;60.38;99692.81;4410369;32;20008;-92
2021/09/13 06:30:26;;;;;;;;;;;;;;;22.35;60.40;99694.19;4410314;32;19989;-92
2021/09/13 06:32:52;;;;;;;;;;;;;;;22.50;60.40;99693.91;4410556;32;19986;-92
2021/09/13 06:35:17;;;;;;;;;;;;;;;22.69;60.41;99694.03;4410436;32;20301;-93
2021/09/13 06:37:42;;;;;;;;;;;;;;;22.73;60.42;99689.34;4411584;32;19990;-93
2021/09/13 06:40:08;;;;;;;;;;;;;;;22.99;60.43;99692.50;4410544;32;20205;-93
2021/09/13 06:42:33;;;;;;;;;;;;;;;22.91;60.42;99693.12;4410505;32;20001;-93
2021/09/13 06:45:07;;;;;;;;;;;;;;;23.31;60.45;99689.75;4410419;32;20000;-93
2021/09/13 06:49:58;;;;;;;;;;;;;;;23.32;60.44;99694.94;4410943;32;20040;-93
2021/09/13 06:52:23;;;;;;;;;;;;;;;23.55;60.46;99693.81;4413189;32;20028;-92
2021/09/13 06:54:49;;;;;;;;;;;;;;;23.55;60.46;99693.81;4412437;32;20027;-93
2021/09/13 06:57:14;;;;;;;;;;;;;;;23.62;60.46;99698.59;4412389;32;19985;-92
2021/09/13 06:59:40;;;;;;;;;;;;;;;23.70;60.47;99701.47;4412130;32;20045;-93
2021/09/13 07:02:06;;;;;;;;;;;;;;;23.72;60.46;99699.50;4412456;32;20024;-93
2021/09/13 07:04:32;;;;;;;;;;;;;;;23.91;60.47;99704.06;4412147;32;19978;-93
2021/09/13 07:06:57;;;;;;;;;;;;;;;23.87;60.47;99704.31;4412472;32;20009;-93
2021/09/13 07:09:22;;;;;;;;;;;;;;;23.92;60.48;99708.41;4412185;32;19989;-94
2021/09/13 07:11:48;;;;;;;;;;;;;;;23.79;60.47;99706.81;4412122;32;20039;-95
2021/09/13 07:14:13;;;;;;;;;;;;;;;23.80;60.47;99713.81;4412385;32;19986;-93
2021/09/13 07:16:38;;;;;;;;;;;;;;;24.03;60.48;99708.28;4412212;32;19986;-94
2021/09/13 07:19:03;;;;;;;;;;;;;;;24.12;60.49;99710.94;4412477;32;19990;-93
2021/09/13 07:21:29;;;;;;;;;;;;;;;24.13;60.49;99707.34;4412820;32;20012;-94
2021/09/13 07:23:54;;;;;;;;;;;;;;;24.25;60.49;99707.22;4412897;32;19977;-94
2021/09/13 07:26:19;;;;;;;;;;;;;;;24.31;60.50;99704.03;4413541;32;20246;-93
2021/09/13 07:28:44;;;;;;;;;;;;;;;24.38;60.50;99713.16;4422629;32;20010;-93
2021/09/13 07:31:10;;;;;;;;;;;;;;;24.63;60.51;99711.78;4426645;32;19990;-94
2021/09/13 07:33:35;;;;;;;;;;;;;;;24.85;60.53;99708.00;4418704;32;19986;-94
2021/09/13 07:36:00;;;;;;;;;;;;;;;24.95;60.53;99714.97;4412102;32;20008;-94
2021/09/13 07:38:25;;;;;;;;;;;;;;;25.07;60.54;99710.38;4412378;32;19990;-94
2021/09/13 07:40:51;;;;;;;;;;;;;;;25.32;60.55;99709.78;4412398;32;19997;-95
2021/09/13 07:43:16;;;;;;;;;;;;;;;25.35;60.55;99721.97;4412246;32;20312;-94
2021/09/13 07:45:41;;;;;;;;;;;;;;;25.43;60.56;99722.09;4412166;32;20251;-94
2021/09/13 07:48:06;;;;;;;;;;;;;;;25.52;60.55;99717.69;4412170;32;19990;-94
2021/09/13 07:50:32;;;;;;;;;;;;;;;25.81;60.57;99725.66;4412838;32;19993;-94
2021/09/13 07:52:57;;;;;;;;;;;;;;;25.88;60.58;99716.06;4412265;32;20025;-93
2021/09/13 07:55:22;;;;;;;;;;;;;;;26.06;60.59;99721.44;4415735;32;19986;-95
2021/09/13 07:57:47;;;;;;;;;;;;;;;26.10;60.59;99717.50;4416061;32;20008;-95
2021/09/13 08:00:14;;;;;;;;;;;;;;;26.35;60.60;99716.81;4412916;32;19989;-94
2021/09/13 08:02:40;;;;;;;;;;;;;;;26.30;60.60;99719.06;4412704;32;19950;-93
2021/09/13 08:05:06;;;;;;;;;;;;;;;26.27;60.60;99722.88;4415071;32;19969;-95
2021/09/13 08:07:31;;;;;;;;;;;;;;;26.48;60.61;99719.09;4413874;32;20008;-95
2021/09/13 08:09:56;;;;;;;;;;;;;;;26.62;60.61;99715.91;4413112;32;20025;-94
2021/09/13 08:12:22;;;;;;;;;;;;;;;26.65;60.62;99715.59;4414222;32;20025;-96
2021/09/13 08:14:47;;;;;;;;;;;;;;;26.84;60.62;99718.13;4413240;32;20013;-94
2021/09/13 08:17:12;;;;;;;;;;;;;;;26.87;60.63;99712.47;4413031;32;19997;-94
2021/09/13 08:19:41;;;;;;;;;;;;;;;26.89;60.63;99720.31;4413392;32;20013;-95
2021/09/13 08:22:07;;;;;;;;;;;;;;;27.05;60.64;99716.97;4413567;32;20357;-96
2021/09/13 08:24:32;;;;;;;;;;;;;;;27.24;60.65;99721.31;4413664;32;19989;-96
2021/09/13 08:26:57;;;;;;;;;;;;;;;27.07;60.64;99723.00;4426974;32;20005;-95
2021/09/13 08:29:26;;;;;;;;;;;;;;;27.19;60.65;99714.56;4426635;32;20000;-95
2021/09/13 08:31:53;;;;;;;;;;;;;;;27.32;60.65;99724.03;4424947;32;19949;-96
2021/09/13 08:34:18;;;;;;;;;;;;;;;27.45;60.66;99713.75;4413249;32;20005;-96
2021/09/13 08:36:44;;;;;;;;;;;;;;;27.57;60.66;99719.66;4412922;32;20039;-96
2021/09/13 08:39:09;;;;;;;;;;;;;;;27.56;60.66;99729.53;4412922;32;20040;-96
2021/09/13 08:41:34;;;;;;;;;;;;;;;27.61;60.67;99723.69;4413225;32;20012;-96
2021/09/13 08:44:00;;;;;;;;;;;;;;;27.74;60.67;99735.69;4413086;32;20314;-96
2021/09/13 08:46:35;;;;;;;;;;;;;;;27.84;60.68;99730.19;4413227;32;19990;-96
2021/09/13 08:49:05;;;;;;;;;;;;;;;27.95;60.68;99724.56;4413910;32;20669;-95
2021/09/13 08:51:31;;;;;;;;;;;;;;;28.22;60.71;99731.53;4413662;32;20652;-95
2021/09/13 08:53:57;;;;;;;;;;;;;;;28.31;60.70;99733.25;4413363;32;19992;-96
2021/09/13 08:56:28;;;;;;;;;;;;;;;28.39;60.71;99729.75;4413001;32;20020;-96
2021/09/13 08:58:53;;;;;;;;;;;;;;;28.73;60.73;99732.31;4413531;32;19998;-95
2021/09/13 09:01:18;;;;;;;;;;;;;;;28.66;60.72;99742.03;4414652;32;20008;-96
2021/09/13 09:03:45;;;;;;;;;;;;;;;28.47;60.72;99727.09;4412507;32;21924;-96
2021/09/13 09:06:29;;;;;;;;;;;;;;;28.69;60.72;99728.31;4412740;32;20019;-96
2021/09/13 09:09:04;;;;;;;;;;;;;;;28.79;60.73;99734.34;4400194;32;20346;-96
2021/09/13 09:11:53;;;;;;;;;;;;;;;29.15;60.74;99726.00;4412240;32;20368;-94
2021/09/13 09:14:23;;;;;;;;;;;;;;;29.16;60.74;99727.69;4412048;32;19990;-96
2021/09/13 09:16:53;;;;;;;;;;;;;;;29.18;60.75;99729.19;4412559;32;19976;-94
2021/09/13 09:19:19;;;;;;;;;;;;;;;29.43;60.76;99724.63;4411729;32;20043;-93
2021/09/13 09:21:45;;;;;;;;;;;;;;;29.46;60.76;99732.34;4413834;32;20370;-93
2021/09/13 09:24:10;;;;;;;;;;;;;;;29.29;60.75;99727.97;4411366;32;19985;-93
2021/09/13 09:26:35;;;;;;;;;;;;;;;29.24;60.74;99724.97;4410742;32;23683;-92
2021/09/13 09:29:01;;;;;;;;;;;;;;;29.46;60.76;99724.31;4410932;32;20001;-92
2021/09/13 09:31:33;;;;;;;;;;;;;;;29.63;60.77;99727.78;4411157;32;19990;-89
2021/09/13 09:34:09;;;;;;;;;;;;;;;29.74;60.78;99715.84;4411049;32;19986;-89
2021/09/13 09:36:35;;;;;;;;;;;;;;;29.90;60.79;99721.16;4410869;32;19990;-89
2021/09/13 09:39:01;;;;;;;;;;;;;;;29.95;60.79;99719.63;4410504;32;20264;-90
2021/09/13 09:41:26;;;;;;;;;;;;;;;29.73;60.78;99716.84;4411142;32;19965;-89
2021/09/13 09:43:51;;;;;;;;;;;;;;;30.07;60.80;99714.75;4410168;32;24143;-89
2021/09/13 09:46:18;;;;;;;;;;;;;;;29.94;60.79;99717.13;4410571;32;20013;-90
2021/09/13 09:48:43;;;;;;;;;;;;;;;30.14;60.81;99713.03;4425180;32;19998;-90
2021/09/13 09:51:28;;;;;;;;;;;;;;;30.49;60.81;99716.16;4411290;32;20345;-90
2021/09/13 09:53:53;;;;;;;;;;;;;;;30.44;60.81;99707.81;4410411;32;19997;-90
2021/09/13 09:56:18;;;;;;;;;;;;;;;30.45;60.82;99714.84;4410438;32;20002;-90
2021/09/13 09:59:01;;;;;;;;;;;;;;;30.42;60.81;99721.41;4410569;32;20032;-89
2021/09/13 10:01:30;;;;;;;;;;;;;;;30.41;60.82;99718.91;4424491;32;19981;-90
2021/09/13 10:03:55;;;;;;;;;;;;;;;30.50;60.82;99707.09;4410767;32;20009;-89
2021/09/13 10:06:21;;;;;;;;;;;;;;;30.65;60.83;99713.41;4424591;32;19978;-89
2021/09/13 10:08:46;;;;;;;;;;;;;;;30.94;60.84;99704.59;4411558;32;19986;-88
2021/09/13 10:11:11;;;;;;;;;;;;;;;31.22;60.85;99706.72;4412532;32;19984;-86
2021/09/13 10:13:37;;;;;;;;;;;;;;;31.14;60.85;99700.41;4426861;32;34656;-86
2021/09/13 10:16:02;;;;;;;;;;;;;;;31.31;60.87;99705.66;4437311;32;24859;-86
2021/09/13 10:18:27;;;;;;;;;;;;;;;31.44;60.87;99703.16;4412910;32;20013;-86
2021/09/13 10:20:53;;;;;;;;;;;;;;;31.78;60.88;99699.94;4409700;32;26823;-86
2021/09/13 10:23:18;;;;;;;;;;;;;;;31.40;60.87;99702.69;4410022;32;20298;-86
2021/09/13 10:25:43;;;;;;;;;;;;;;;31.48;60.87;99700.94;4410227;32;20026;-87
2021/09/13 10:28:09;;;;;;;;;;;;;;;31.62;60.87;99694.72;4409956;32;20319;-86
2021/09/13 10:30:52;;;;;;;;;;;;;;;31.72;60.89;99695.31;4410108;32;19970;-86
2021/09/13 10:33:18;;;;;;;;;;;;;;;32.00;60.90;99696.28;4423905;32;20035;-86
2021/09/13 10:35:52;;;;;;;;;;;;;;;32.14;60.90;99697.28;4424080;32;19979;-87
2021/09/13 10:38:36;;;;;;;;;;;;;;;32.34;60.91;99692.16;4425906;32;20364;-86
2021/09/13 10:41:01;;;;;;;;;;;;;;;32.19;60.90;99688.66;4424158;32;19974;-87
2021/09/13 10:43:26;;;;;;;;;;;;;;;32.29;60.91;99691.88;4410152;32;20315;-87
2021/09/13 10:45:52;;;;;;;;;;;;;;;32.12;60.90;99693.94;4409864;32;20000;-87
2021/09/13 10:48:18;;;;;;;;;;;;;;;32.21;60.91;99698.22;4423566;32;20687;-87
2021/09/13 10:50:45;;;;;;;;;;;;;;;32.31;60.91;99697.91;4410176;32;20322;-87
2021/09/13 10:53:31;;;;;;;;;;;;;;;32.25;60.91;99694.09;4423613;32;19974;-87
2021/09/13 10:55:58;;;;;;;;;;;;;;;32.28;60.91;99688.34;4408092;32;20076;-87
2021/09/13 10:58:30;;;;;;;;;;;;;;;31.96;60.90;99688.78;4407373;32;20017;-87
2021/09/13 11:00:55;;;;;;;;;;;;;;;31.81;60.89;99686.09;4408420;32;20363;-87
2021/09/13 11:06:02;;;;;;;;;;;;;;;32.18;60.90;99682.44;4408454;32;20186;-87
2021/09/13 11:08:28;;;;;;;;;;;;;;;32.51;60.93;99684.66;4407356;32;20009;-87
2021/09/13 11:10:53;;;;;;;;;;;;;;;32.64;60.93;99669.44;4407329;32;19986;-87
2021/09/13 11:13:18;;;;;;;;;;;;;;;32.66;60.92;99680.87;4406703;32;20585;-87
2021/09/13 11:15:49;;;;;;;;;;;;;;;32.23;60.91;99688.06;4407791;32;23851;-88
2021/09/13 11:18:31;;;;;;;;;;;;;;;32.05;60.90;99680.41;4421222;32;19981;-88
2021/09/13 11:21:18;;;;;;;;;;;;;;;31.85;60.89;99682.00;4415610;32;19989;-85
2021/09/13 11:23:43;;;;;;;;;;;;;;;31.75;60.89;99684.19;4408522;32;20038;-86
2021/09/13 11:26:08;;;;;;;;;;;;;;;31.73;60.89;99676.28;4406710;32;20343;-86
2021/09/13 11:28:50;;;;;;;;;;;;;;;31.85;60.89;99676.62;4406743;32;20290;-86
2021/09/13 11:31:26;;;;;;;;;;;;;;;31.80;60.89;99670.16;4406596;32;20038;-85
2021/09/13 11:33:51;;;;;;;;;;;;;;;31.67;60.89;99674.28;4406575;32;20046;-86
2021/09/13 11:36:20;;;;;;;;;;;;;;;31.59;60.88;99676.25;4408034;32;19986;-84
2021/09/13 11:38:55;;;;;;;;;;;;;;;31.70;60.90;99668.53;4408885;32;19994;-85
2021/09/13 11:41:20;;;;;;;;;;;;;;;31.70;60.90;99668.53;4409099;32;19974;-87
2021/09/13 11:44:15;;;;;;;;;;;;;;;31.62;60.89;99665.94;4409449;32;26507;-86
2021/09/13 11:46:50;;;;;;;;;;;;;;;31.68;60.88;99672.44;4400144;32;19982;-87
2021/09/13 11:49:23;;;;;;;;;;;;;;;31.39;60.87;99671.41;4396492;32;20012;-86
2021/09/13 11:52:03;;;;;;;;;;;;;;;31.44;60.87;99660.94;4409179;32;20005;-86
2021/09/13 11:54:29;;;;;;;;;;;;;;;31.59;60.88;99671.72;4417925;32;19982;-86
2021/09/13 11:56:54;;;;;;;;;;;;;;;31.94;60.89;99661.19;4425547;32;19995;-86
2021/09/13 11:59:23;;;;;;;;;;;;;;;31.86;60.89;99653.25;4425034;32;20375;-86
2021/09/13 12:01:55;;;;;;;;;;;;;;;31.70;60.88;99656.94;4411521;32;19999;-87
2021/09/13 12:04:20;;;;;;;;;;;;;;;31.48;60.88;99653.34;4411456;32;19974;-87
2021/09/13 12:07:02;;;;;;;;;;;;;;;31.30;60.86;99655.56;4425230;32;19978;-87
2021/09/13 12:09:27;;;;;;;;;;;;;;;31.33;60.87;99655.19;4425267;32;19981;-87
2021/09/13 12:11:52;;;;;;;;;;;;;;;31.49;60.88;99656.88;4424402;32;30090;-86
2021/09/13 12:14:18;;;;;;;;;;;;;;;31.00;60.86;99655.50;4411393;32;20005;-86
2021/09/13 12:17:02;;;;;;;;;;;;;;;31.06;60.87;99657.47;4411005;32;28594;-86
2021/09/13 12:19:27;;;;;;;;;;;;;;;31.06;60.85;99660.16;4425592;32;20013;-87
2021/09/13 12:22:03;;;;;;;;;;;;;;;31.37;60.87;99651.94;4410661;32;28065;-86
2021/09/13 12:24:28;;;;;;;;;;;;;;;31.63;60.89;99651.47;4411269;32;20061;-86
2021/09/13 12:26:53;;;;;;;;;;;;;;;31.49;60.88;99644.25;4425067;32;20333;-87
2021/09/13 12:29:19;;;;;;;;;;;;;;;31.56;60.88;99644.34;4410801;32;22418;-86
2021/09/13 12:31:44;;;;;;;;;;;;;;;31.44;60.87;99639.41;4424135;32;30786;-87
2021/09/13 12:34:09;;;;;;;;;;;;;;;31.60;60.88;99637.56;4411001;32;19974;-86
2021/09/13 12:36:34;;;;;;;;;;;;;;;31.73;60.89;99644.00;4411235;32;19994;-86
2021/09/13 12:39:00;;;;;;;;;;;;;;;31.84;60.89;99631.91;4411246;32;20018;-87
2021/09/13 12:41:29;;;;;;;;;;;;;;;32.14;60.91;99623.72;4411174;32;19999;-86
2021/09/13 12:43:54;;;;;;;;;;;;;;;32.18;60.92;99617.78;4425368;32;19994;-87
2021/09/13 12:46:19;;;;;;;;;;;;;;;32.49;60.92;99617.50;4425115;32;19974;-87
2021/09/13 12:48:46;;;;;;;;;;;;;;;32.57;60.93;99611.94;4424302;32;19978;-87
2021/09/13 12:51:18;;;;;;;;;;;;;;;32.33;60.91;99621.28;4425429;32;20240;-87